Time;durP1;ratioP1;P1;durP2;ratioP2;P2;SDS_P1;SDS_P2;PMS_P1;PMS_P2;Temp;Humidity;BMP_temperature;BMP_pressure;BME280_temperature;BME280_humidity;BME280_pressure;Samples;Min_cycle;Max_cycle;Signal;HPM_P1;HPM_P2
2022/02/24 00:00:16;;;;;;;7.57;2.67;;;10.60;85.60;;;;;;5073468;28;20460;-66
2022/02/24 00:02:43;;;;;;;5.00;3.50;;;10.60;85.70;;;;;;5073199;28;20931;-66
2022/02/24 00:05:11;;;;;;;5.73;2.50;;;10.60;85.90;;;;;;5073487;28;20561;-66
2022/02/24 00:07:38;;;;;;;10.53;3.50;;;10.60;86.10;;;;;;5073107;28;20959;-66
2022/02/24 00:10:09;;;;;;;8.90;3.50;;;10.60;86.20;;;;;;5073467;28;20491;-67
2022/02/24 00:12:36;;;;;;;7.93;2.87;;;10.60;86.30;;;;;;5073251;28;20955;-67
2022/02/24 00:15:04;;;;;;;13.23;3.40;;;10.60;86.30;;;;;;5073438;28;20445;-66
2022/02/24 00:17:31;;;;;;;8.77;2.50;;;10.60;86.30;;;;;;5073410;28;20502;-66
2022/02/24 00:19:58;;;;;;;9.17;3.20;;;10.60;86.40;;;;;;5073263;28;20832;-67
2022/02/24 00:22:25;;;;;;;7.67;3.40;;;10.60;87.20;;;;;;5073140;28;20464;-67
2022/02/24 00:24:52;;;;;;;5.50;2.90;;;10.60;86.90;;;;;;5073608;28;20445;-66
2022/02/24 00:27:20;;;;;;;9.53;2.67;;;10.60;86.80;;;;;;5073341;28;20452;-66
2022/02/24 00:29:47;;;;;;;6.00;2.77;;;10.50;86.40;;;;;;5073106;28;20998;-66
2022/02/24 00:32:13;;;;;;;8.13;3.20;;;10.50;86.50;;;;;;5073641;28;20432;-66
2022/02/24 00:34:40;;;;;;;8.33;2.63;;;10.50;87.00;;;;;;5072971;28;20966;-66
2022/02/24 00:37:07;;;;;;;8.27;2.70;;;10.50;87.20;;;;;;5072987;28;20963;-66
2022/02/24 00:39:34;;;;;;;8.33;2.80;;;10.50;87.80;;;;;;5073120;28;20469;-66
2022/02/24 00:42:00;;;;;;;7.53;3.10;;;10.60;88.10;;;;;;5073227;28;20455;-66
2022/02/24 00:44:29;;;;;;;11.53;3.07;;;10.60;88.00;;;;;;5073256;28;20448;-66
2022/02/24 00:46:55;;;;;;;10.67;3.30;;;10.60;87.60;;;;;;5072862;28;20484;-66
2022/02/24 00:49:23;;;;;;;9.60;3.03;;;10.60;87.10;;;;;;5073055;28;20476;-66
2022/02/24 00:51:50;;;;;;;6.77;2.60;;;10.60;87.00;;;;;;5073063;28;20543;-66
2022/02/24 00:54:17;;;;;;;6.83;2.70;;;10.60;87.10;;;;;;5073133;28;20460;-66
2022/02/24 00:56:44;;;;;;;9.73;3.50;;;10.60;86.70;;;;;;5073101;28;20444;-66
2022/02/24 00:59:11;;;;;;;12.03;2.67;;;10.60;86.90;;;;;;5072992;28;20723;-66
2022/02/24 01:01:39;;;;;;;5.50;2.43;;;10.60;86.90;;;;;;5073008;28;20448;-66
2022/02/24 01:04:06;;;;;;;11.97;2.93;;;10.50;86.80;;;;;;5073032;28;20456;-66
2022/02/24 01:06:32;;;;;;;9.20;2.60;;;10.50;87.10;;;;;;5076105;28;20488;-66
2022/02/24 01:08:59;;;;;;;6.20;2.60;;;10.50;87.50;;;;;;5076439;28;21002;-66
2022/02/24 01:11:26;;;;;;;3.93;2.40;;;10.60;87.70;;;;;;5076741;28;20436;-66
2022/02/24 01:13:53;;;;;;;7.00;2.77;;;10.60;87.80;;;;;;5076612;28;20447;-66
2022/02/24 01:16:19;;;;;;;11.27;4.70;;;10.60;87.80;;;;;;5076582;28;20445;-66
2022/02/24 01:18:47;;;;;;;9.43;3.20;;;10.60;87.40;;;;;;5076480;28;20471;-67
2022/02/24 01:21:14;;;;;;;11.93;3.20;;;10.60;87.50;;;;;;5076254;28;20971;-66
2022/02/24 01:23:41;;;;;;;10.67;3.03;;;10.60;87.80;;;;;;5076516;28;20440;-66
2022/02/24 01:26:09;;;;;;;13.33;3.20;;;10.50;87.30;;;;;;5076360;28;20480;-66
2022/02/24 01:28:36;;;;;;;8.90;3.10;;;10.50;87.60;;;;;;5076772;28;20962;-67
2022/02/24 01:31:03;;;;;;;10.13;3.90;;;10.50;87.50;;;;;;5076706;28;20444;-67
2022/02/24 01:33:30;;;;;;;8.13;3.20;;;10.50;87.60;;;;;;5076850;28;20452;-66
2022/02/24 01:35:58;;;;;;;4.27;2.30;;;10.50;88.00;;;;;;5076669;28;20440;-66
2022/02/24 01:38:25;;;;;;;6.83;2.93;;;10.50;87.60;;;;;;5076344;28;20477;-67
2022/02/24 01:40:51;;;;;;;16.33;3.37;;;10.50;87.40;;;;;;5076169;28;20453;-66
2022/02/24 01:43:18;;;;;;;8.50;2.40;;;10.50;87.80;;;;;;5076362;28;20467;-67
2022/02/24 01:45:45;;;;;;;9.60;3.27;;;10.50;88.10;;;;;;5075960;28;20464;-66
2022/02/24 01:48:12;;;;;;;12.30;2.77;;;10.50;88.10;;;;;;5076015;28;20445;-67
2022/02/24 01:50:39;;;;;;;4.87;2.90;;;10.50;87.80;;;;;;5075884;28;20448;-66
2022/02/24 01:53:08;;;;;;;8.50;2.77;;;10.50;88.00;;;;;;5076215;28;20429;-66
2022/02/24 01:55:35;;;;;;;9.50;3.20;;;10.40;87.70;;;;;;5076151;28;20444;-66
2022/02/24 01:58:03;;;;;;;5.80;2.87;;;10.40;87.60;;;;;;5076031;28;20479;-67
2022/02/24 02:00:30;;;;;;;8.40;2.63;;;10.40;87.90;;;;;;5076033;28;20449;-66
2022/02/24 02:02:56;;;;;;;12.50;2.70;;;10.40;88.10;;;;;;5075822;28;20548;-66
2022/02/24 02:05:23;;;;;;;5.80;2.80;;;10.40;87.70;;;;;;5075392;28;20460;-66
2022/02/24 02:07:50;;;;;;;5.70;2.73;;;10.50;88.00;;;;;;5075707;28;20551;-66
2022/02/24 02:10:18;;;;;;;7.00;2.50;;;10.40;87.90;;;;;;5075712;28;20461;-66
2022/02/24 02:12:47;;;;;;;11.27;2.40;;;10.40;88.10;;;;;;5075852;28;20453;-66
2022/02/24 02:15:14;;;;;;;11.00;3.30;;;10.40;87.90;;;;;;5075411;28;20451;-66
2022/02/24 02:17:40;;;;;;;5.90;2.23;;;10.40;87.90;;;;;;5075057;28;20449;-66
2022/02/24 02:20:08;;;;;;;8.53;2.90;;;10.40;87.70;;;;;;5075531;28;20842;-66
2022/02/24 02:22:36;;;;;;;14.73;3.10;;;10.40;88.10;;;;;;5075411;28;20523;-66
2022/02/24 02:25:05;;;;;;;13.63;3.00;;;10.40;88.00;;;;;;5075895;28;20828;-66
2022/02/24 02:27:32;;;;;;;11.50;2.40;;;10.40;88.40;;;;;;5075354;28;21002;-66
2022/02/24 02:29:58;;;;;;;11.70;3.20;;;10.40;88.80;;;;;;5075981;28;20473;-66
2022/02/24 02:32:26;;;;;;;16.13;3.30;;;10.40;88.90;;;;;;5075918;28;20811;-67
2022/02/24 02:34:53;;;;;;;8.27;2.73;;;10.40;88.80;;;;;;5075977;28;20445;-67
2022/02/24 02:37:20;;;;;;;12.10;2.70;;;10.30;89.20;;;;;;5075927;28;20833;-66
2022/02/24 02:39:48;;;;;;;14.67;2.40;;;10.40;89.40;;;;;;5075671;28;20469;-66
2022/02/24 02:42:15;;;;;;;5.70;2.70;;;10.40;89.30;;;;;;5075064;28;20444;-66
2022/02/24 02:44:42;;;;;;;6.10;2.60;;;10.40;89.20;;;;;;5075299;28;20445;-66
2022/02/24 02:47:08;;;;;;;12.17;3.30;;;10.40;89.40;;;;;;5074820;28;20563;-66
2022/02/24 02:49:38;;;;;;;14.03;2.90;;;10.40;89.40;;;;;;5075075;28;20468;-66
2022/02/24 02:52:05;;;;;;;12.40;2.47;;;10.40;89.90;;;;;;5074957;28;20451;-66
2022/02/24 02:54:32;;;;;;;5.77;2.63;;;10.40;89.50;;;;;;5074658;28;20936;-66
2022/02/24 02:57:00;;;;;;;18.07;3.27;;;10.40;90.20;;;;;;5074896;28;20464;-66
2022/02/24 02:59:27;;;;;;;13.53;3.37;;;10.40;89.90;;;;;;5075095;28;20956;-66
2022/02/24 03:01:55;;;;;;;20.93;3.33;;;10.40;89.70;;;;;;5074746;28;20451;-66
2022/02/24 03:04:23;;;;;;;11.50;2.90;;;10.40;89.80;;;;;;5074370;28;20429;-66
2022/02/24 03:06:49;;;;;;;8.77;3.37;;;10.40;90.00;;;;;;5074415;28;20492;-66
2022/02/24 03:09:16;;;;;;;7.07;2.80;;;10.40;90.00;;;;;;5074545;28;20465;-66
2022/02/24 03:11:43;;;;;;;8.20;2.73;;;10.40;90.10;;;;;;5074501;28;20473;-66
2022/02/24 03:14:11;;;;;;;8.30;3.33;;;10.40;90.10;;;;;;5074215;28;20452;-66
2022/02/24 03:16:38;;;;;;;7.57;2.53;;;10.40;90.00;;;;;;5074345;28;20437;-66
2022/02/24 03:19:05;;;;;;;6.90;2.23;;;10.40;90.10;;;;;;5073831;28;20471;-67
2022/02/24 03:21:32;;;;;;;9.40;2.97;;;10.40;89.90;;;;;;5074293;28;20848;-66
2022/02/24 03:23:58;;;;;;;6.30;2.77;;;10.40;90.00;;;;;;5074132;28;20445;-66
2022/02/24 03:26:25;;;;;;;5.23;2.10;;;10.40;90.00;;;;;;5073885;28;21001;-66
2022/02/24 03:28:52;;;;;;;7.70;2.67;;;10.40;90.00;;;;;;5072946;28;20464;-66
2022/02/24 03:31:20;;;;;;;11.93;3.27;;;10.40;90.00;;;;;;5073580;28;21010;-66
2022/02/24 03:33:47;;;;;;;7.63;2.30;;;10.30;90.00;;;;;;5074167;28;20448;-66
2022/02/24 03:36:14;;;;;;;8.13;3.80;;;10.30;90.00;;;;;;5073718;28;20966;-66
2022/02/24 03:38:41;;;;;;;10.27;2.70;;;10.30;90.20;;;;;;5073879;28;20519;-66
2022/02/24 03:41:08;;;;;;;6.90;2.70;;;10.30;90.40;;;;;;5074010;28;20449;-66
2022/02/24 03:43:35;;;;;;;7.77;2.80;;;10.30;90.30;;;;;;5073923;28;20453;-66
2022/02/24 03:46:01;;;;;;;8.33;2.60;;;10.30;90.50;;;;;;5073881;28;20444;-66
2022/02/24 03:48:29;;;;;;;7.00;2.00;;;10.30;90.50;;;;;;5073812;28;20472;-66
2022/02/24 03:50:56;;;;;;;8.40;2.80;;;10.30;90.60;;;;;;5073791;28;20464;-66
2022/02/24 03:53:23;;;;;;;5.70;2.70;;;10.30;90.60;;;;;;5073827;28;20441;-66
2022/02/24 03:55:50;;;;;;;5.73;2.93;;;10.30;90.60;;;;;;5073764;28;20440;-66
2022/02/24 03:58:16;;;;;;;8.03;2.60;;;10.40;90.60;;;;;;5073747;28;20432;-66
2022/02/24 04:00:43;;;;;;;16.57;2.83;;;10.40;90.50;;;;;;5073768;28;20456;-66
2022/02/24 04:03:10;;;;;;;10.70;2.60;;;10.40;90.70;;;;;;5073693;28;20449;-66
2022/02/24 04:05:38;;;;;;;8.90;2.57;;;10.40;90.80;;;;;;5073586;28;20825;-66
2022/02/24 04:08:05;;;;;;;15.63;3.50;;;10.40;90.80;;;;;;5072935;28;20495;-66
2022/02/24 04:10:32;;;;;;;9.63;2.83;;;10.40;91.30;;;;;;5073524;28;20445;-66
2022/02/24 04:12:59;;;;;;;14.83;2.97;;;10.40;90.90;;;;;;5073256;28;20449;-66
2022/02/24 04:15:25;;;;;;;6.57;3.03;;;10.40;90.90;;;;;;5073170;28;20821;-66
2022/02/24 04:17:52;;;;;;;8.47;2.57;;;10.40;90.90;;;;;;5073146;28;20815;-66
2022/02/24 04:20:19;;;;;;;5.17;2.43;;;10.40;91.10;;;;;;5073408;28;20471;-66
2022/02/24 04:22:47;;;;;;;10.03;3.20;;;10.30;91.20;;;;;;5073136;28;20966;-66
2022/02/24 04:25:14;;;;;;;10.37;2.43;;;10.30;91.20;;;;;;5073139;28;20965;-66
2022/02/24 04:27:47;;;;;;;7.40;2.57;;;10.30;91.20;;;;;;5072962;28;20476;-66
2022/02/24 04:30:14;;;;;;;5.70;2.40;;;10.20;91.40;;;;;;5073287;28;20492;-66
2022/02/24 04:32:41;;;;;;;7.97;3.37;;;10.20;91.30;;;;;;5073361;28;20449;-66
2022/02/24 04:35:08;;;;;;;11.90;2.10;;;10.30;91.00;;;;;;5073310;28;20448;-66
2022/02/24 04:37:35;;;;;;;12.40;2.50;;;10.20;90.80;;;;;;5072951;28;20974;-66
2022/02/24 04:40:04;;;;;;;7.27;2.20;;;10.20;91.00;;;;;;5074248;28;20457;-66
2022/02/24 04:42:31;;;;;;;6.03;2.73;;;10.10;91.20;;;;;;5077393;28;20452;-66
2022/02/24 04:44:58;;;;;;;8.50;2.80;;;10.10;91.40;;;;;;5076980;28;20916;-66
2022/02/24 04:47:25;;;;;;;7.60;2.20;;;10.10;91.30;;;;;;5076878;28;20542;-66
2022/02/24 04:49:52;;;;;;;8.67;3.30;;;10.10;91.60;;;;;;5076810;28;21014;-66
2022/02/24 04:52:19;;;;;;;10.43;2.77;;;10.10;91.60;;;;;;5077172;28;20471;-66
2022/02/24 04:54:46;;;;;;;4.83;3.03;;;10.00;91.60;;;;;;5077169;28;20429;-66
2022/02/24 04:57:14;;;;;;;5.10;2.47;;;10.00;91.80;;;;;;5077006;28;20471;-66
2022/02/24 04:59:41;;;;;;;7.97;2.57;;;10.00;91.80;;;;;;5076720;28;20472;-66
2022/02/24 05:02:07;;;;;;;11.33;2.43;;;10.00;91.90;;;;;;5076835;28;20449;-66
2022/02/24 05:04:34;;;;;;;11.33;3.07;;;10.10;91.80;;;;;;5076923;28;20835;-66
2022/02/24 05:07:01;;;;;;;8.70;2.60;;;10.10;91.80;;;;;;5076647;28;20492;-66
2022/02/24 05:09:28;;;;;;;17.50;3.90;;;10.10;91.90;;;;;;5077119;28;20468;-66
2022/02/24 05:11:54;;;;;;;8.93;2.43;;;10.10;91.60;;;;;;5076782;28;20459;-66
2022/02/24 05:14:22;;;;;;;6.50;2.40;;;10.10;91.60;;;;;;5076820;28;20447;-66
2022/02/24 05:16:49;;;;;;;6.00;2.37;;;10.10;91.60;;;;;;5076726;28;20441;-66
2022/02/24 05:19:16;;;;;;;13.37;2.77;;;10.00;91.80;;;;;;5076618;28;20463;-66
2022/02/24 05:21:43;;;;;;;8.60;2.63;;;10.00;91.80;;;;;;5076622;28;20535;-66
2022/02/24 05:24:10;;;;;;;10.20;2.53;;;10.00;92.00;;;;;;5076532;28;20453;-66
2022/02/24 05:26:37;;;;;;;10.30;2.90;;;10.10;91.80;;;;;;5076483;28;20448;-66
2022/02/24 05:29:04;;;;;;;10.77;2.60;;;10.10;91.90;;;;;;5076445;28;20538;-66
2022/02/24 05:31:33;;;;;;;5.73;2.57;;;10.00;92.10;;;;;;5076108;28;20936;-65
2022/02/24 05:33:59;;;;;;;10.90;3.20;;;10.00;91.70;;;;;;5076379;28;20444;-67
2022/02/24 05:36:26;;;;;;;4.53;2.23;;;10.00;91.90;;;;;;5076352;28;20448;-66
2022/02/24 05:38:54;;;;;;;13.67;2.43;;;10.00;92.00;;;;;;5076260;28;20460;-66
2022/02/24 05:41:21;;;;;;;10.73;2.70;;;10.00;92.00;;;;;;5076289;28;20885;-66
2022/02/24 05:43:50;;;;;;;5.20;1.77;;;10.00;91.90;;;;;;5076422;28;20452;-66
2022/02/24 05:46:17;;;;;;;8.70;2.47;;;10.00;91.90;;;;;;5076241;28;20444;-66
2022/02/24 05:48:45;;;;;;;8.77;2.53;;;10.00;92.10;;;;;;5076046;28;20484;-67
2022/02/24 05:51:13;;;;;;;9.03;2.57;;;10.00;91.90;;;;;;5076354;28;20448;-66
2022/02/24 05:53:40;;;;;;;7.17;2.47;;;10.00;91.70;;;;;;5077293;28;20455;-66
2022/02/24 05:56:06;;;;;;;6.73;2.10;;;10.00;91.70;;;;;;5077742;28;20429;-66
2022/02/24 05:58:34;;;;;;;5.50;1.90;;;10.00;91.80;;;;;;5077441;28;20470;-66
2022/02/24 06:01:00;;;;;;;9.17;2.37;;;9.90;92.30;;;;;;5077515;28;20506;-67
2022/02/24 06:03:27;;;;;;;11.90;2.97;;;9.90;92.40;;;;;;5077497;28;20454;-67
2022/02/24 06:05:57;;;;;;;6.03;2.07;;;9.80;92.50;;;;;;5077709;28;20527;-66
2022/02/24 06:08:24;;;;;;;11.40;2.20;;;9.80;92.60;;;;;;5076883;28;20511;-66
2022/02/24 06:10:52;;;;;;;13.40;2.43;;;9.80;92.80;;;;;;5077425;28;20448;-66
2022/02/24 06:13:19;;;;;;;8.77;2.67;;;9.80;92.80;;;;;;5076673;28;20456;-65
2022/02/24 06:15:46;;;;;;;7.53;2.60;;;9.70;92.20;;;;;;5076620;28;20471;-65
2022/02/24 06:18:18;;;;;;;3.93;2.00;;;9.70;92.30;;;;;;5076267;28;20452;-66
2022/02/24 06:20:45;;;;;;;7.53;1.80;;;9.60;92.40;;;;;;5076041;28;20437;-65
2022/02/24 06:23:13;;;;;;;5.87;2.00;;;9.50;92.60;;;;;;5075798;28;20440;-66
2022/02/24 06:25:40;;;;;;;9.73;2.43;;;9.60;92.90;;;;;;5075787;28;20804;-65
2022/02/24 06:28:07;;;;;;;6.80;2.17;;;9.60;93.10;;;;;;5075708;28;21014;-66
2022/02/24 06:30:34;;;;;;;2.37;1.97;;;9.60;93.00;;;;;;5075226;28;20461;-65
2022/02/24 06:33:01;;;;;;;7.37;2.70;;;9.60;93.10;;;;;;5075747;28;20456;-65
2022/02/24 06:35:28;;;;;;;7.80;1.77;;;9.50;93.00;;;;;;5075666;28;20791;-65
2022/02/24 06:37:55;;;;;;;6.03;1.80;;;9.50;93.10;;;;;;5075228;28;20460;-65
2022/02/24 06:40:23;;;;;;;6.87;2.50;;;9.50;93.00;;;;;;5075258;28;20468;-65
2022/02/24 06:42:50;;;;;;;10.87;2.77;;;9.50;93.20;;;;;;5075390;28;20491;-65
2022/02/24 06:45:17;;;;;;;9.40;2.17;;;9.50;93.40;;;;;;5075190;28;20819;-65
2022/02/24 06:47:44;;;;;;;4.77;1.93;;;9.50;93.70;;;;;;5074833;28;20849;-65
2022/02/24 06:50:11;;;;;;;6.93;2.63;;;9.50;93.90;;;;;;5075052;28;20475;-65
2022/02/24 06:52:38;;;;;;;5.50;2.27;;;9.60;93.80;;;;;;5074886;28;20451;-65
2022/02/24 06:55:06;;;;;;;7.90;2.30;;;9.60;93.40;;;;;;5074936;28;20460;-65
2022/02/24 06:57:39;;;;;;;9.47;2.90;;;9.60;93.50;;;;;;5074766;28;20474;-65
2022/02/24 07:00:07;;;;;;;3.63;1.70;;;9.50;93.50;;;;;;5074566;28;21002;-65
2022/02/24 07:02:34;;;;;;;7.57;2.50;;;9.50;93.40;;;;;;5074529;28;20448;-65
2022/02/24 07:05:00;;;;;;;8.63;1.80;;;9.50;93.40;;;;;;5074673;28;20472;-65
2022/02/24 07:07:29;;;;;;;7.67;2.13;;;9.50;93.30;;;;;;5074178;28;20495;-65
2022/02/24 07:09:56;;;;;;;6.73;2.10;;;9.40;93.40;;;;;;5074472;28;20472;-65
2022/02/24 07:12:22;;;;;;;8.17;2.60;;;9.40;93.50;;;;;;5074461;28;20456;-65
2022/02/24 07:14:51;;;;;;;5.70;1.80;;;9.40;93.60;;;;;;5074443;28;20444;-65
2022/02/24 07:17:17;;;;;;;4.53;1.70;;;9.50;93.70;;;;;;5074394;28;20440;-65
2022/02/24 07:19:44;;;;;;;11.47;2.77;;;9.60;93.60;;;;;;5073967;28;21014;-66
2022/02/24 07:22:11;;;;;;;5.63;2.20;;;9.60;93.60;;;;;;5074313;28;20459;-65
2022/02/24 07:24:38;;;;;;;9.43;3.50;;;9.70;93.60;;;;;;5074067;28;20440;-65
2022/02/24 07:27:05;;;;;;;11.20;3.03;;;9.70;93.50;;;;;;5074139;28;20452;-65
2022/02/24 07:29:31;;;;;;;6.20;1.97;;;9.80;93.20;;;;;;5074020;28;20492;-65
2022/02/24 07:31:59;;;;;;;8.67;2.60;;;9.80;93.20;;;;;;5074195;28;20441;-65
2022/02/24 07:34:26;;;;;;;13.40;2.50;;;9.90;92.80;;;;;;5073631;28;20894;-65
2022/02/24 07:36:53;;;;;;;9.97;1.80;;;9.90;92.70;;;;;;5074150;28;20449;-65
2022/02/24 07:39:20;;;;;;;6.80;1.83;;;10.00;92.30;;;;;;5073911;28;20468;-66
2022/02/24 07:41:48;;;;;;;4.83;2.10;;;10.10;92.00;;;;;;5073890;28;20436;-65
2022/02/24 07:44:15;;;;;;;12.30;2.17;;;10.10;91.90;;;;;;5073929;28;20490;-66
2022/02/24 07:46:42;;;;;;;13.07;2.63;;;10.10;91.80;;;;;;5073565;28;20858;-65
2022/02/24 07:49:10;;;;;;;8.90;2.37;;;10.20;91.80;;;;;;5073402;28;20849;-65
2022/02/24 07:51:37;;;;;;;9.77;2.63;;;10.30;91.80;;;;;;5073795;28;20452;-65
2022/02/24 07:54:04;;;;;;;8.93;2.33;;;10.30;91.60;;;;;;5073881;28;20444;-67
2022/02/24 07:56:31;;;;;;;5.37;2.20;;;10.30;91.40;;;;;;5073705;28;20475;-66
2022/02/24 07:58:57;;;;;;;6.13;2.20;;;10.30;91.50;;;;;;5073599;28;20498;-65
2022/02/24 08:01:24;;;;;;;7.97;2.30;;;10.30;91.80;;;;;;5074062;28;20447;-65
2022/02/24 08:03:52;;;;;;;8.90;2.40;;;10.40;91.40;;;;;;5073658;28;20453;-65
2022/02/24 08:06:20;;;;;;;7.83;2.33;;;10.40;91.10;;;;;;5073666;28;20450;-66
2022/02/24 08:08:48;;;;;;;8.40;2.20;;;10.50;91.40;;;;;;5073094;28;20496;-66
2022/02/24 08:11:14;;;;;;;8.30;1.90;;;10.50;91.20;;;;;;5073766;28;20551;-66
2022/02/24 08:13:42;;;;;;;14.10;2.90;;;10.50;91.10;;;;;;5073484;28;20444;-66
2022/02/24 08:16:09;;;;;;;18.73;4.03;;;10.50;90.80;;;;;;5073053;28;20452;-65
2022/02/24 08:18:36;;;;;;;12.30;2.00;;;10.50;90.80;;;;;;5073613;28;20456;-65
2022/02/24 08:21:02;;;;;;;9.90;2.60;;;10.50;91.10;;;;;;5073411;28;20433;-65
2022/02/24 08:23:31;;;;;;;12.63;2.77;;;10.50;91.10;;;;;;5073595;28;20865;-65
2022/02/24 08:25:57;;;;;;;7.00;2.07;;;10.50;91.50;;;;;;5073195;28;20936;-65
2022/02/24 08:28:24;;;;;;;4.37;1.70;;;10.50;91.80;;;;;;5073352;28;20492;-66
2022/02/24 08:30:51;;;;;;;9.80;2.47;;;10.50;92.10;;;;;;5073344;28;20457;-66
2022/02/24 08:33:18;;;;;;;7.90;2.80;;;10.50;92.50;;;;;;5073347;28;20451;-66
2022/02/24 08:35:45;;;;;;;6.93;2.17;;;10.50;92.70;;;;;;5073333;28;20453;-66
2022/02/24 08:38:11;;;;;;;10.90;2.87;;;10.40;92.20;;;;;;5073213;28;20444;-67
2022/02/24 08:40:39;;;;;;;7.57;2.40;;;10.40;92.30;;;;;;5073486;28;20824;-65
2022/02/24 08:43:06;;;;;;;11.20;3.03;;;10.40;92.40;;;;;;5073048;28;20456;-65
2022/02/24 08:45:35;;;;;;;8.77;2.37;;;10.30;92.50;;;;;;5073264;28;20828;-65
2022/02/24 08:48:02;;;;;;;8.23;2.40;;;10.30;93.00;;;;;;5073103;28;20540;-65
2022/02/24 08:50:29;;;;;;;9.53;2.50;;;10.40;93.10;;;;;;5072842;28;20459;-66
2022/02/24 08:52:56;;;;;;;5.60;2.50;;;10.40;93.30;;;;;;5073128;28;20510;-66
2022/02/24 08:55:23;;;;;;;8.43;2.67;;;10.40;93.50;;;;;;5073130;28;20440;-66
2022/02/24 08:57:52;;;;;;;11.47;2.73;;;10.40;93.60;;;;;;5073093;28;20447;-66
2022/02/24 09:00:19;;;;;;;10.00;2.17;;;10.30;93.70;;;;;;5072717;28;20464;-65
2022/02/24 09:02:46;;;;;;;8.33;2.10;;;10.30;94.00;;;;;;5073076;28;20455;-65
2022/02/24 09:05:13;;;;;;;6.17;2.43;;;10.30;94.20;;;;;;5072718;28;20448;-65
2022/02/24 09:07:40;;;;;;;8.10;2.77;;;10.30;94.60;;;;;;5072508;28;20456;-65
2022/02/24 09:10:07;;;;;;;14.93;2.80;;;10.30;94.70;;;;;;5072551;28;20468;-65
2022/02/24 09:12:34;;;;;;;7.37;2.67;;;10.30;94.80;;;;;;5072950;28;20441;-65
2022/02/24 09:15:02;;;;;;;5.77;2.20;;;10.40;95.00;;;;;;5072926;28;20444;-65
2022/02/24 09:17:28;;;;;;;7.93;2.50;;;10.40;95.10;;;;;;5072891;28;20456;-65
2022/02/24 09:19:55;;;;;;;4.67;2.60;;;10.40;95.40;;;;;;5072789;28;20526;-66
2022/02/24 09:22:22;;;;;;;6.70;2.10;;;10.40;95.20;;;;;;5072589;28;20406;-66
2022/02/24 09:24:49;;;;;;;7.13;2.20;;;10.50;95.70;;;;;;5072881;28;20441;-66
2022/02/24 09:27:16;;;;;;;12.07;3.00;;;10.60;95.70;;;;;;5075994;28;20451;-66
2022/02/24 09:29:42;;;;;;;7.70;2.53;;;10.60;95.40;;;;;;5076547;28;20495;-66
2022/02/24 09:32:10;;;;;;;6.20;2.90;;;10.70;95.20;;;;;;5076496;28;20452;-66
2022/02/24 09:34:38;;;;;;;8.00;2.97;;;10.70;95.10;;;;;;5076261;28;20829;-66
2022/02/24 09:37:05;;;;;;;6.23;2.60;;;10.80;95.60;;;;;;5076516;28;20502;-66
2022/02/24 09:39:32;;;;;;;7.33;3.30;;;10.90;94.90;;;;;;5075979;28;20979;-66
2022/02/24 09:41:58;;;;;;;8.23;2.83;;;10.90;94.60;;;;;;5076323;28;20453;-66
2022/02/24 09:44:25;;;;;;;7.97;4.20;;;11.00;94.40;;;;;;5076178;28;20944;-66
2022/02/24 09:46:53;;;;;;;6.03;2.80;;;11.00;94.40;;;;;;5076106;28;20956;-66
2022/02/24 09:49:23;;;;;;;7.60;3.40;;;11.10;94.20;;;;;;5076105;28;21018;-66
2022/02/24 09:51:49;;;;;;;4.60;2.43;;;11.20;94.00;;;;;;5078529;28;20447;-66
2022/02/24 09:54:16;;;;;;;8.67;2.40;;;11.20;93.90;;;;;;5077650;28;20444;-65
2022/02/24 09:56:43;;;;;;;14.23;3.33;;;11.20;93.90;;;;;;5076324;28;20425;-65
2022/02/24 09:59:12;;;;;;;12.20;3.33;;;11.20;94.10;;;;;;5076318;28;20551;-65
2022/02/24 10:01:40;;;;;;;5.83;2.50;;;11.20;94.10;;;;;;5075713;28;20449;-65
2022/02/24 10:04:06;;;;;;;5.27;2.70;;;11.30;94.10;;;;;;5075842;28;20502;-65
2022/02/24 10:06:37;;;;;;;9.30;2.80;;;11.40;93.90;;;;;;5075424;28;20448;-65
2022/02/24 10:09:05;;;;;;;8.70;3.00;;;11.40;93.80;;;;;;5075713;28;20494;-66
2022/02/24 10:11:34;;;;;;;5.67;3.00;;;11.40;93.60;;;;;;5075708;28;20449;-66
2022/02/24 10:14:03;;;;;;;15.50;3.23;;;11.50;93.80;;;;;;5075626;28;20813;-66
2022/02/24 10:16:31;;;;;;;6.53;3.70;;;11.40;93.90;;;;;;5075435;28;20429;-65
2022/02/24 10:18:57;;;;;;;9.03;2.93;;;11.50;93.70;;;;;;5075561;28;20476;-66
2022/02/24 10:21:26;;;;;;;4.03;2.73;;;11.40;93.40;;;;;;5075199;28;20445;-66
2022/02/24 10:23:54;;;;;;;6.70;2.80;;;11.50;93.20;;;;;;5076156;28;20483;-66
2022/02/24 10:26:21;;;;;;;8.07;3.10;;;11.60;92.90;;;;;;5075201;28;20433;-66
2022/02/24 10:28:50;;;;;;;7.87;3.43;;;11.70;92.50;;;;;;5075378;28;20510;-66
2022/02/24 10:31:18;;;;;;;8.57;3.80;;;11.80;92.50;;;;;;5075602;28;20444;-66
2022/02/24 10:33:50;;;;;;;11.90;4.27;;;11.90;92.60;;;;;;5075582;28;20448;-67
2022/02/24 10:36:21;;;;;;;6.70;3.63;;;12.00;92.50;;;;;;5075112;28;20432;-66
2022/02/24 10:39:01;;;;;;;5.70;3.40;;;12.10;92.30;;;;;;5074736;28;20692;-66
2022/02/24 10:41:30;;;;;;;6.20;4.63;;;12.20;92.10;;;;;;5075388;28;20443;-66
2022/02/24 10:44:18;;;;;;;7.00;3.57;;;12.30;91.60;;;;;;5075115;28;20456;-66
2022/02/24 10:46:46;;;;;;;13.10;5.20;;;12.30;91.60;;;;;;5075364;28;20433;-66
2022/02/24 10:49:15;;;;;;;16.10;4.10;;;12.30;91.90;;;;;;5074803;28;20516;-66
2022/02/24 10:51:42;;;;;;;5.13;3.60;;;12.30;91.80;;;;;;5075148;28;20453;-66
2022/02/24 10:54:12;;;;;;;8.03;3.27;;;12.40;91.80;;;;;;5074902;28;20852;-66
2022/02/24 10:56:41;;;;;;;13.20;4.07;;;12.60;90.90;;;;;;5075174;28;20434;-66
2022/02/24 10:59:08;;;;;;;8.93;4.80;;;12.70;90.90;;;;;;5074943;28;20463;-66
2022/02/24 11:01:36;;;;;;;6.77;3.93;;;12.90;90.30;;;;;;5075005;28;20445;-66
2022/02/24 11:04:05;;;;;;;9.03;2.90;;;12.90;90.10;;;;;;5075030;28;20449;-66
2022/02/24 11:06:34;;;;;;;9.97;5.30;;;12.90;89.70;;;;;;5074386;28;20841;-66
2022/02/24 11:09:01;;;;;;;8.37;3.53;;;12.80;90.30;;;;;;5074717;28;20520;-66
2022/02/24 11:11:31;;;;;;;11.67;4.37;;;12.40;90.20;;;;;;5074500;28;20839;-66
2022/02/24 11:14:00;;;;;;;6.80;3.70;;;12.40;91.00;;;;;;5075135;28;20449;-66
2022/02/24 11:16:28;;;;;;;8.93;3.70;;;12.30;90.20;;;;;;5074693;28;20451;-66
2022/02/24 11:18:57;;;;;;;6.80;3.33;;;12.20;90.80;;;;;;5074524;28;20467;-66
2022/02/24 11:21:25;;;;;;;6.33;3.53;;;12.10;90.60;;;;;;5074610;28;20452;-66
2022/02/24 11:23:53;;;;;;;8.70;2.70;;;12.00;90.20;;;;;;5074390;28;20456;-66
2022/02/24 11:26:33;;;;;;;4.40;2.90;;;12.00;90.50;;;;;;5074367;28;20447;-66
2022/02/24 11:29:06;;;;;;;6.40;2.43;;;12.00;90.10;;;;;;5074199;28;20523;-66
2022/02/24 11:31:43;;;;;;;12.83;3.03;;;11.90;90.00;;;;;;5074364;28;20405;-66
2022/02/24 11:34:10;;;;;;;6.67;2.67;;;11.80;90.40;;;;;;5074168;28;20433;-66
2022/02/24 11:36:41;;;;;;;5.37;2.10;;;11.80;90.10;;;;;;5073870;28;20440;-65
2022/02/24 11:39:10;;;;;;;4.53;2.23;;;11.60;90.40;;;;;;5074012;28;20469;-65
2022/02/24 11:41:53;;;;;;;4.70;2.57;;;11.50;90.00;;;;;;5074195;28;20445;-65
2022/02/24 11:44:36;;;;;;;6.43;1.93;;;11.50;89.90;;;;;;5072760;28;20455;-65
2022/02/24 11:47:05;;;;;;;9.57;2.67;;;11.40;90.50;;;;;;5074302;28;20405;-65
2022/02/24 11:50:09;;;;;;;4.07;2.20;;;11.60;91.10;;;;;;5073090;28;20484;-66
2022/02/24 11:52:49;;;;;;;6.40;2.17;;;11.70;90.30;;;;;;5073788;28;20459;-67
2022/02/24 11:55:43;;;;;;;4.63;2.70;;;11.90;90.00;;;;;;5073545;28;20520;-66
2022/02/24 11:58:37;;;;;;;9.60;2.10;;;12.20;88.70;;;;;;5071617;28;20452;-67
2022/02/24 12:01:24;;;;;;;4.97;1.83;;;12.60;87.20;;;;;;5073373;28;20912;-66
2022/02/24 12:03:52;;;;;;;4.70;2.30;;;13.10;85.60;;;;;;5073388;28;20432;-66
2022/02/24 12:06:21;;;;;;;4.73;1.93;;;13.30;82.00;;;;;;5073586;28;20444;-66
2022/02/24 12:09:05;;;;;;;4.90;2.13;;;13.60;80.50;;;;;;5073120;28;20571;-66
2022/02/24 12:11:35;;;;;;;4.03;2.03;;;14.00;79.10;;;;;;5073508;28;20445;-66
2022/02/24 12:14:02;;;;;;;8.43;2.13;;;14.20;76.70;;;;;;5073188;28;20924;-66
2022/02/24 12:16:31;;;;;;;3.30;1.77;;;14.00;75.20;;;;;;5073193;28;20444;-66
2022/02/24 12:18:57;;;;;;;4.87;1.70;;;13.50;73.50;;;;;;5073097;28;20836;-66
2022/02/24 12:21:28;;;;;;;3.37;1.40;;;13.10;76.80;;;;;;5073430;28;20449;-66
2022/02/24 12:23:57;;;;;;;5.83;2.00;;;12.70;77.60;;;;;;5073221;28;20468;-66
2022/02/24 12:26:38;;;;;;;4.37;1.33;;;12.60;79.40;;;;;;5073432;28;20440;-66
2022/02/24 12:29:25;;;;;;;9.00;1.40;;;12.30;79.30;;;;;;5073131;28;20491;-66
2022/02/24 12:31:57;;;;;;;5.40;1.50;;;12.10;79.60;;;;;;5073325;28;20510;-66
2022/02/24 12:34:24;;;;;;;4.67;1.30;;;12.10;78.30;;;;;;5073261;28;20486;-66
2022/02/24 12:36:51;;;;;;;10.17;2.30;;;11.90;76.80;;;;;;5073170;28;20452;-66
2022/02/24 12:39:18;;;;;;;4.40;1.60;;;11.90;77.20;;;;;;5073241;28;20484;-66
2022/02/24 12:41:45;;;;;;;15.97;2.50;;;11.90;77.50;;;;;;5073318;28;20444;-65
2022/02/24 12:44:21;;;;;;;12.53;1.50;;;11.80;78.20;;;;;;5073275;28;20452;-65
2022/02/24 12:46:48;;;;;;;10.27;1.47;;;11.90;78.80;;;;;;5073206;28;20516;-65
2022/02/24 12:49:16;;;;;;;6.13;1.33;;;12.00;78.80;;;;;;5072841;28;20480;-66